Time;durP1;ratioP1;P1;durP2;ratioP2;P2;SDS_P1;SDS_P2;PMS_P1;PMS_P2;Temp;Humidity;BMP_temperature;BMP_pressure;BME280_temperature;BME280_humidity;BME280_pressure;Samples;Min_cycle;Max_cycle;Signal;HPM_P1;HPM_P2
2021/05/25 00:00:14;;;;;;;20.00;11.18;;;11.70;99.90;;;;;;5041342;28;20495;-77
2021/05/25 00:02:42;;;;;;;16.88;10.85;;;11.70;99.90;;;;;;5040876;28;20033;-76
2021/05/25 00:05:09;;;;;;;16.27;10.68;;;11.70;99.90;;;;;;5041459;28;20021;-76
2021/05/25 00:07:35;;;;;;;18.65;10.65;;;11.80;99.90;;;;;;5040635;28;20033;-77
2021/05/25 00:10:00;;;;;;;21.58;11.40;;;11.80;99.90;;;;;;5040164;28;20017;-77
2021/05/25 00:12:26;;;;;;;18.90;11.70;;;11.80;99.90;;;;;;5044850;28;20053;-77
2021/05/25 00:14:52;;;;;;;18.10;11.82;;;11.70;99.90;;;;;;5038724;28;20387;-76
2021/05/25 00:17:18;;;;;;;18.20;11.07;;;11.70;99.90;;;;;;5040718;28;20046;-77
2021/05/25 00:19:43;;;;;;;18.20;11.35;;;11.70;99.90;;;;;;5043772;28;20479;-76
2021/05/25 00:22:12;;;;;;;17.95;11.43;;;11.70;99.90;;;;;;5042657;28;20072;-77
2021/05/25 00:24:38;;;;;;;17.73;10.13;;;11.70;99.90;;;;;;5039293;28;20041;-75
2021/05/25 00:27:04;;;;;;;9.65;6.55;;;11.70;99.90;;;;;;5037486;28;20028;-77
2021/05/25 00:29:30;;;;;;;10.45;6.68;;;11.60;99.90;;;;;;5047767;28;20076;-76
2021/05/25 00:31:55;;;;;;;10.77;7.20;;;11.70;99.90;;;;;;5046131;28;20061;-75
2021/05/25 00:34:21;;;;;;;11.00;6.82;;;11.70;99.90;;;;;;5041890;28;20041;-76
2021/05/25 00:36:47;;;;;;;9.70;6.55;;;11.70;99.90;;;;;;5043125;28;20446;-77
2021/05/25 00:39:12;;;;;;;9.32;6.20;;;11.70;99.90;;;;;;5041760;28;20495;-76
2021/05/25 00:41:38;;;;;;;8.80;6.22;;;11.70;99.90;;;;;;5042125;28;20029;-76
2021/05/25 00:44:07;;;;;;;8.00;5.82;;;11.60;99.90;;;;;;5039638;28;20043;-77
2021/05/25 00:46:33;;;;;;;8.38;5.53;;;11.70;99.90;;;;;;5041245;28;20510;-77
2021/05/25 00:48:59;;;;;;;8.98;6.05;;;11.60;99.90;;;;;;5040329;28;20025;-76
2021/05/25 00:51:24;;;;;;;11.98;7.40;;;11.70;99.90;;;;;;5042442;28;20033;-77
2021/05/25 00:53:50;;;;;;;10.07;6.15;;;11.70;99.90;;;;;;5039429;28;20505;-77
2021/05/25 00:56:17;;;;;;;136.65;20.20;;;11.70;99.90;;;;;;5038248;28;20030;-77
2021/05/25 00:58:42;;;;;;;18.30;9.13;;;11.70;99.90;;;;;;5038203;28;20116;-77
2021/05/25 01:01:08;;;;;;;13.27;8.50;;;11.70;99.90;;;;;;5040182;28;20108;-77
2021/05/25 01:03:34;;;;;;;45.97;12.48;;;11.60;99.90;;;;;;5043001;28;20047;-77
2021/05/25 01:06:00;;;;;;;25.17;10.20;;;11.70;99.90;;;;;;5036042;28;20624;-77
2021/05/25 01:08:26;;;;;;;16.25;9.90;;;11.60;99.90;;;;;;5046647;28;20395;-77
2021/05/25 01:10:57;;;;;;;15.65;10.00;;;11.60;99.90;;;;;;5034180;28;20033;-77
2021/05/25 01:13:25;;;;;;;20.13;11.18;;;11.70;99.90;;;;;;5042173;28;20026;-77
2021/05/25 01:15:52;;;;;;;20.23;11.60;;;11.70;99.90;;;;;;5042415;28;20025;-76
2021/05/25 01:18:18;;;;;;;20.85;10.93;;;11.70;99.90;;;;;;5040735;28;20021;-77
2021/05/25 01:20:47;;;;;;;44.20;14.48;;;11.70;99.90;;;;;;5039241;28;20407;-77
2021/05/25 01:23:13;;;;;;;18.63;10.57;;;11.70;99.90;;;;;;5042249;28;20037;-77
2021/05/25 01:25:44;;;;;;;17.83;10.90;;;11.70;99.90;;;;;;5039006;28;20022;-77
2021/05/25 01:28:11;;;;;;;19.17;12.23;;;11.70;99.90;;;;;;5040066;28;20108;-76
2021/05/25 01:30:41;;;;;;;18.08;9.93;;;11.70;99.90;;;;;;5039550;28;20021;-76
2021/05/25 01:33:08;;;;;;;16.70;9.63;;;11.80;99.90;;;;;;5035360;28;20029;-77
2021/05/25 01:35:35;;;;;;;15.98;8.80;;;11.70;99.90;;;;;;5041093;28;20402;-77
2021/05/25 01:38:02;;;;;;;12.95;8.68;;;11.70;99.90;;;;;;5032986;28;20112;-77
2021/05/25 01:40:28;;;;;;;12.52;7.53;;;11.60;99.90;;;;;;5040304;28;20565;-77
2021/05/25 01:42:55;;;;;;;10.75;6.65;;;11.60;99.90;;;;;;5041298;28;20103;-77
2021/05/25 01:45:24;;;;;;;10.52;5.88;;;11.70;99.90;;;;;;5041379;28;20025;-77
2021/05/25 01:47:51;;;;;;;10.88;6.72;;;11.70;99.90;;;;;;5045109;28;20037;-77
2021/05/25 01:50:18;;;;;;;9.88;6.38;;;11.70;99.90;;;;;;5040497;28;20043;-76
2021/05/25 01:53:00;;;;;;;9.50;6.07;;;11.70;99.90;;;;;;5042733;28;20087;-77
2021/05/25 01:55:46;;;;;;;9.75;5.75;;;11.80;99.90;;;;;;5042609;28;20060;-78
2021/05/25 01:58:21;;;;;;;10.40;6.75;;;11.80;99.90;;;;;;5047006;28;20112;-77
2021/05/25 02:00:58;;;;;;;9.55;6.35;;;11.70;99.90;;;;;;5041515;28;20037;-76
2021/05/25 02:03:24;;;;;;;8.07;5.57;;;11.70;99.90;;;;;;5049074;28;20049;-77
2021/05/25 02:05:50;;;;;;;8.35;4.82;;;11.70;99.90;;;;;;5046634;28;20036;-77
2021/05/25 02:08:19;;;;;;;8.07;5.03;;;11.60;99.90;;;;;;5038749;28;20541;-77
2021/05/25 02:10:52;;;;;;;6.88;4.45;;;11.70;99.90;;;;;;5045856;28;20036;-77
2021/05/25 02:13:27;;;;;;;6.70;4.05;;;11.70;99.90;;;;;;5043956;28;20025;-76
2021/05/25 02:15:56;;;;;;;;;;;11.70;99.90;;;;;;5046673;28;20047;-77
2021/05/25 02:18:27;;;;;;;10.25;6.25;;;11.70;99.90;;;;;;5037751;28;19909;-77
2021/05/25 02:20:59;;;;;;;12.23;7.22;;;11.70;99.90;;;;;;5042622;28;20029;-77
2021/05/25 02:23:26;;;;;;;12.18;6.95;;;11.70;99.90;;;;;;5044920;28;20532;-77
2021/05/25 02:25:52;;;;;;;9.82;6.07;;;11.70;99.90;;;;;;5046012;28;20513;-77
2021/05/25 02:28:18;;;;;;;7.60;4.60;;;11.70;99.90;;;;;;5041884;28;20033;-77
2021/05/25 02:30:45;;;;;;;6.55;4.82;;;11.70;99.90;;;;;;5040745;28;20555;-77
2021/05/25 02:33:15;;;;;;;6.68;4.20;;;11.70;99.90;;;;;;5043383;28;20120;-77
2021/05/25 02:35:43;;;;;;;6.65;4.35;;;11.60;99.90;;;;;;5045998;28;20386;-77
2021/05/25 02:38:11;;;;;;;7.70;5.28;;;11.60;99.90;;;;;;5044004;28;20025;-76
2021/05/25 02:40:38;;;;;;;8.35;5.07;;;11.70;99.90;;;;;;5041874;28;20113;-76
2021/05/25 02:43:04;;;;;;;7.75;5.20;;;11.70;99.90;;;;;;5048819;28;20036;-77
2021/05/25 02:45:31;;;;;;;7.72;5.13;;;11.70;99.90;;;;;;5042639;28;20078;-77
2021/05/25 02:47:57;;;;;;;8.90;4.80;;;11.70;99.90;;;;;;5041702;28;20055;-77
2021/05/25 02:50:23;;;;;;;7.70;4.20;;;11.70;99.90;;;;;;5044060;28;20033;-77
2021/05/25 02:52:50;;;;;;;6.07;3.83;;;11.70;99.90;;;;;;5042080;28;20025;-77
2021/05/25 02:55:18;;;;;;;5.85;3.85;;;11.70;99.90;;;;;;5042375;28;20101;-77
2021/05/25 02:57:44;;;;;;;6.90;4.45;;;11.70;99.90;;;;;;5046876;28;20025;-77
2021/05/25 03:00:20;;;;;;;7.07;4.13;;;11.70;99.90;;;;;;5042677;28;20100;-77
2021/05/25 03:02:46;;;;;;;7.32;4.90;;;11.70;99.90;;;;;;5041397;28;20056;-77
2021/05/25 03:05:13;;;;;;;6.63;4.43;;;11.80;99.90;;;;;;5035981;28;20550;-77
2021/05/25 03:07:39;;;;;;;5.88;4.05;;;11.70;99.90;;;;;;5036087;28;20051;-77
2021/05/25 03:10:08;;;;;;;6.32;4.53;;;11.70;99.90;;;;;;5036251;28;20057;-77
2021/05/25 03:12:35;;;;;;;7.18;4.90;;;11.70;99.90;;;;;;5034263;28;20109;-77
2021/05/25 03:15:01;;;;;;;6.10;4.10;;;11.60;99.90;;;;;;5034643;28;20029;-77
2021/05/25 03:17:27;;;;;;;6.22;4.22;;;11.60;99.90;;;;;;5038185;28;20053;-77
2021/05/25 03:19:53;;;;;;;6.80;4.60;;;11.70;99.90;;;;;;5036180;28;20039;-77
2021/05/25 03:22:18;;;;;;;10.57;6.05;;;11.70;99.90;;;;;;5036714;28;20029;-77
2021/05/25 03:24:44;;;;;;;13.77;6.15;;;11.80;99.90;;;;;;5036115;28;20514;-78
2021/05/25 03:27:10;;;;;;;7.45;5.45;;;11.70;99.90;;;;;;5035562;28;20075;-77
2021/05/25 03:29:36;;;;;;;9.13;5.50;;;11.70;99.90;;;;;;5039595;28;20025;-77
2021/05/25 03:32:01;;;;;;;9.77;6.53;;;11.70;99.90;;;;;;5037475;28;20387;-77
2021/05/25 03:34:27;;;;;;;9.60;6.20;;;11.60;99.90;;;;;;5034271;28;20037;-77
2021/05/25 03:36:53;;;;;;;9.77;6.45;;;11.70;99.90;;;;;;5034121;28;20029;-78
2021/05/25 03:39:18;;;;;;;9.98;5.95;;;11.70;99.90;;;;;;5030148;28;20103;-77
2021/05/25 03:41:44;;;;;;;11.15;7.22;;;11.60;99.90;;;;;;5030187;28;20033;-76
2021/05/25 03:44:13;;;;;;;23.38;10.32;;;11.60;99.90;;;;;;5036057;28;20040;-78
2021/05/25 03:46:40;;;;;;;157.23;23.92;;;11.60;99.90;;;;;;5037285;28;20605;-77
2021/05/25 03:49:06;;;;;;;12.57;8.50;;;11.60;99.90;;;;;;5036783;28;20531;-77
2021/05/25 03:51:32;;;;;;;11.18;7.60;;;11.70;99.90;;;;;;5033855;28;20079;-78
2021/05/25 03:53:58;;;;;;;10.70;7.22;;;11.70;99.90;;;;;;5033672;28;20032;-77
2021/05/25 03:56:45;;;;;;;13.93;7.90;;;11.70;99.90;;;;;;5029167;28;20040;-78
2021/05/25 03:59:10;;;;;;;14.45;9.02;;;11.70;99.90;;;;;;5034558;28;20021;-77
2021/05/25 04:01:36;;;;;;;14.15;8.13;;;11.70;99.90;;;;;;5036706;28;20094;-76
2021/05/25 04:04:02;;;;;;;9.60;6.35;;;11.70;99.90;;;;;;5036722;28;20044;-77
2021/05/25 04:06:28;;;;;;;12.95;7.10;;;11.80;99.90;;;;;;5031208;28;20025;-77
2021/05/25 04:08:54;;;;;;;11.07;7.38;;;11.80;99.90;;;;;;5032894;28;20053;-77
2021/05/25 04:11:19;;;;;;;11.52;6.95;;;11.70;99.90;;;;;;5037118;28;20045;-77
2021/05/25 04:13:45;;;;;;;13.55;7.50;;;11.80;99.90;;;;;;5033120;28;20640;-77
2021/05/25 04:16:13;;;;;;;13.70;9.32;;;11.70;99.90;;;;;;5039528;28;20076;-77
2021/05/25 04:18:39;;;;;;;16.70;10.52;;;11.70;99.90;;;;;;5036975;28;20060;-77
2021/05/25 04:21:05;;;;;;;19.77;11.43;;;11.70;99.90;;;;;;5034829;28;20021;-78
2021/05/25 04:23:31;;;;;;;22.00;12.80;;;11.70;99.90;;;;;;5035621;28;20509;-77
2021/05/25 04:25:57;;;;;;;15.15;9.52;;;11.70;99.90;;;;;;5035966;28;20049;-77
2021/05/25 04:28:23;;;;;;;15.80;9.07;;;11.80;99.90;;;;;;5035936;28;20032;-77
2021/05/25 04:30:49;;;;;;;15.60;9.07;;;11.80;99.90;;;;;;5036528;28;20032;-77
2021/05/25 04:33:14;;;;;;;14.30;8.52;;;11.80;99.90;;;;;;5034758;28;20539;-77
2021/05/25 04:35:41;;;;;;;12.43;7.97;;;11.80;99.90;;;;;;5026693;28;20119;-77
2021/05/25 04:38:07;;;;;;;12.52;8.43;;;11.80;99.90;;;;;;5036868;28;20027;-77
2021/05/25 04:40:33;;;;;;;10.32;6.88;;;11.90;99.90;;;;;;5036005;28;20546;-77
2021/05/25 04:43:02;;;;;;;11.25;7.30;;;11.90;99.90;;;;;;5030084;28;20033;-77
2021/05/25 04:45:28;;;;;;;11.35;6.85;;;11.90;99.90;;;;;;5033803;28;20505;-77
2021/05/25 04:47:54;;;;;;;11.02;7.28;;;12.00;99.90;;;;;;5033598;28;20049;-77
2021/05/25 04:50:20;;;;;;;14.82;9.20;;;11.90;99.90;;;;;;5033456;28;20069;-77
2021/05/25 04:52:48;;;;;;;20.23;11.35;;;11.90;99.90;;;;;;5038586;28;20032;-77
2021/05/25 04:55:16;;;;;;;20.80;11.68;;;12.00;99.90;;;;;;5034556;28;20129;-77
2021/05/25 04:57:42;;;;;;;22.13;12.18;;;12.00;99.90;;;;;;5031726;28;20087;-77
2021/05/25 05:00:16;;;;;;;14.85;10.05;;;12.00;99.90;;;;;;5024254;28;20092;-77
2021/05/25 05:02:42;;;;;;;18.98;11.85;;;12.00;99.90;;;;;;5034607;28;20100;-77
2021/05/25 05:05:09;;;;;;;20.20;11.88;;;12.00;99.90;;;;;;5028737;28;20112;-77
2021/05/25 05:07:35;;;;;;;16.15;11.05;;;12.10;99.90;;;;;;5026715;28;20045;-75
2021/05/25 05:10:02;;;;;;;13.75;9.15;;;12.20;99.90;;;;;;5036881;28;20628;-78
2021/05/25 05:12:28;;;;;;;13.35;9.20;;;12.30;99.90;;;;;;5025404;28;20026;-77
2021/05/25 05:14:55;;;;;;;11.05;7.70;;;12.30;99.90;;;;;;5036338;28;20021;-77
2021/05/25 05:17:23;;;;;;;12.13;8.23;;;12.20;99.90;;;;;;5031614;28;20057;-77
2021/05/25 05:19:49;;;;;;;16.05;10.43;;;12.30;99.90;;;;;;5037731;28;20033;-79
2021/05/25 05:22:15;;;;;;;18.13;10.65;;;12.50;99.90;;;;;;5028677;28;20026;-78
2021/05/25 05:24:40;;;;;;;14.85;9.93;;;12.50;99.90;;;;;;5024661;28;20099;-78
2021/05/25 05:27:06;;;;;;;15.18;9.90;;;12.50;99.90;;;;;;5044797;28;20025;-79
2021/05/25 05:29:32;;;;;;;13.25;9.75;;;12.40;99.90;;;;;;5048867;28;20037;-77
2021/05/25 05:31:58;;;;;;;14.23;10.30;;;12.40;99.90;;;;;;5044621;28;20021;-76
2021/05/25 05:34:23;;;;;;;11.60;8.18;;;12.50;99.90;;;;;;5044575;28;20020;-78
2021/05/25 05:36:49;;;;;;;11.50;7.75;;;12.60;99.90;;;;;;5028597;28;20104;-80
2021/05/25 05:39:15;;;;;;;11.35;7.82;;;12.80;99.90;;;;;;5025122;28;20084;-80
2021/05/25 05:41:41;;;;;;;11.63;7.78;;;12.80;99.90;;;;;;5024276;28;20049;-80
2021/05/25 05:44:07;;;;;;;11.55;8.10;;;12.80;99.90;;;;;;5023159;28;20044;-80
2021/05/25 05:46:32;;;;;;;13.20;9.10;;;12.80;99.90;;;;;;5034381;28;20086;-80
2021/05/25 05:48:58;;;;;;;13.75;9.40;;;12.80;99.90;;;;;;5042895;28;20041;-80
2021/05/25 05:51:24;;;;;;;18.05;11.95;;;12.90;99.90;;;;;;5043440;28;20083;-80
2021/05/25 05:53:50;;;;;;;18.65;12.40;;;13.00;99.90;;;;;;5043602;28;20017;-79
2021/05/25 05:56:18;;;;;;;16.25;11.35;;;12.90;99.90;;;;;;5036299;28;20099;-80
2021/05/25 05:58:44;;;;;;;14.90;10.00;;;12.80;99.90;;;;;;5024941;28;20029;-80
2021/05/25 06:01:11;;;;;;;13.82;9.60;;;12.60;99.90;;;;;;5024993;28;20022;-79
2021/05/25 06:03:37;;;;;;;17.88;11.02;;;12.70;99.90;;;;;;5024649;28;20183;-80
2021/05/25 06:06:03;;;;;;;14.55;10.18;;;12.80;99.90;;;;;;5027892;28;20522;-80
2021/05/25 06:08:29;;;;;;;18.83;10.85;;;12.90;99.90;;;;;;5024628;28;20021;-80
2021/05/25 06:10:54;;;;;;;15.75;10.52;;;12.90;99.90;;;;;;5023306;28;20581;-80
2021/05/25 06:13:24;;;;;;;12.77;8.63;;;12.90;99.90;;;;;;5023035;28;20112;-80
2021/05/25 06:15:53;;;;;;;13.27;8.40;;;13.00;99.90;;;;;;5022924;28;20052;-80
2021/05/25 06:18:18;;;;;;;12.88;8.77;;;13.10;99.90;;;;;;5039645;28;20033;-79
2021/05/25 06:20:44;;;;;;;12.77;8.90;;;13.40;99.90;;;;;;5042188;28;20502;-80
2021/05/25 06:23:10;;;;;;;11.63;7.43;;;13.50;99.90;;;;;;5034645;28;20496;-80
2021/05/25 06:25:36;;;;;;;11.30;7.63;;;13.60;99.90;;;;;;5024438;28;20064;-80
2021/05/25 06:28:02;;;;;;;12.38;8.15;;;13.60;99.90;;;;;;5036431;28;20135;-80
2021/05/25 06:30:29;;;;;;;12.45;9.18;;;13.60;99.90;;;;;;5046396;28;20143;-81
2021/05/25 06:32:55;;;;;;;12.73;8.52;;;13.70;99.90;;;;;;5029063;28;20140;-80
2021/05/25 06:35:20;;;;;;;10.13;7.57;;;13.80;99.90;;;;;;5027725;28;20523;-80
2021/05/25 06:37:46;;;;;;;11.20;8.10;;;13.60;99.90;;;;;;5027831;28;20063;-81
2021/05/25 06:40:12;;;;;;;12.30;8.32;;;13.60;99.90;;;;;;5028181;28;20053;-80
2021/05/25 06:42:39;;;;;;;13.23;8.88;;;13.70;99.90;;;;;;5029269;28;20040;-80
2021/05/25 06:45:06;;;;;;;13.43;9.70;;;13.80;99.90;;;;;;5035467;28;20041;-80
2021/05/25 06:47:32;;;;;;;12.20;8.88;;;14.00;99.90;;;;;;5048188;28;20399;-80
2021/05/25 06:49:58;;;;;;;10.80;7.95;;;14.20;99.90;;;;;;5048683;28;20597;-81
2021/05/25 06:52:24;;;;;;;12.73;9.13;;;14.30;99.90;;;;;;5041495;28;20104;-81
2021/05/25 06:54:49;;;;;;;11.10;8.43;;;14.60;99.90;;;;;;5027502;28;20025;-79
2021/05/25 06:57:15;;;;;;;13.18;9.63;;;14.60;99.90;;;;;;5026865;28;20167;-80
2021/05/25 06:59:41;;;;;;;9.15;6.03;;;14.80;99.90;;;;;;5027708;28;20072;-77
2021/05/25 07:02:06;;;;;;;10.75;7.50;;;15.20;99.90;;;;;;5035455;28;20032;-77
2021/05/25 07:04:32;;;;;;;11.10;7.50;;;15.70;99.90;;;;;;5046348;28;20040;-77
2021/05/25 07:06:58;;;;;;;11.07;7.85;;;15.30;99.90;;;;;;5029530;28;20034;-78
2021/05/25 07:09:24;;;;;;;10.90;8.23;;;15.60;99.90;;;;;;5024864;28;20415;-79
2021/05/25 07:11:50;;;;;;;12.32;8.32;;;16.00;99.90;;;;;;5027280;28;20991;-78
2021/05/25 07:14:16;;;;;;;11.07;7.45;;;16.00;99.90;;;;;;5026954;28;20026;-76
2021/05/25 07:16:41;;;;;;;10.43;7.53;;;15.90;99.90;;;;;;5026876;28;20081;-77
2021/05/25 07:19:07;;;;;;;10.90;8.50;;;16.00;99.90;;;;;;5036095;28;20409;-79
2021/05/25 07:21:33;;;;;;;14.02;8.60;;;16.00;99.90;;;;;;5026783;28;20523;-77
2021/05/25 07:23:59;;;;;;;12.80;8.38;;;15.70;99.90;;;;;;5026857;28;20033;-75
2021/05/25 07:26:25;;;;;;;11.60;7.78;;;16.50;99.90;;;;;;5026922;28;20082;-78
2021/05/25 07:28:52;;;;;;;9.90;7.07;;;17.70;99.90;;;;;;5033036;28;20025;-78
2021/05/25 07:31:18;;;;;;;11.00;7.28;;;18.70;99.90;;;;;;5046994;28;20047;-78
2021/05/25 07:33:45;;;;;;;9.45;7.13;;;19.60;99.90;;;;;;5040449;28;20044;-78
2021/05/25 07:36:11;;;;;;;10.45;7.45;;;20.20;99.90;;;;;;5046157;28;20025;-78
2021/05/25 07:38:37;;;;;;;11.50;6.50;;;19.30;99.90;;;;;;5042681;28;20036;-79
2021/05/25 07:41:03;;;;;;;10.65;7.75;;;18.40;99.90;;;;;;5024418;28;20040;-78
2021/05/25 07:43:30;;;;;;;8.90;6.53;;;17.80;99.90;;;;;;5024925;28;20041;-82
2021/05/25 07:45:56;;;;;;;10.23;7.70;;;17.70;99.90;;;;;;5025718;28;20659;-79
2021/05/25 07:48:23;;;;;;;13.48;7.45;;;16.40;99.90;;;;;;5025137;28;20119;-77
2021/05/25 07:50:49;;;;;;;11.15;7.65;;;16.10;99.90;;;;;;5024142;28;20284;-80
2021/05/25 07:53:15;;;;;;;10.75;6.88;;;17.90;99.90;;;;;;5025943;28;20041;-78
2021/05/25 07:55:40;;;;;;;9.43;6.82;;;19.00;99.90;;;;;;5026155;28;20026;-79
2021/05/25 07:58:06;;;;;;;9.10;6.30;;;18.50;99.90;;;;;;5026303;28;20515;-76
2021/05/25 08:00:32;;;;;;;9.98;6.43;;;18.50;99.90;;;;;;5037152;28;20943;-78
2021/05/25 08:02:59;;;;;;;9.20;7.05;;;18.20;99.90;;;;;;5045641;28;20025;-78
2021/05/25 08:05:27;;;;;;;10.02;7.38;;;17.20;99.90;;;;;;5047043;28;20029;-77
2021/05/25 08:07:54;;;;;;;8.55;6.55;;;16.60;99.90;;;;;;5047120;28;20509;-83
2021/05/25 08:10:19;;;;;;;8.85;7.03;;;16.70;99.90;;;;;;5040781;28;20538;-83
2021/05/25 08:12:45;;;;;;;9.02;6.82;;;16.60;99.90;;;;;;5028163;28;20097;-84
2021/05/25 08:15:13;;;;;;;9.80;6.93;;;16.70;99.90;;;;;;5027421;28;20061;-84
2021/05/25 08:20:24;;;;;;;10.50;6.75;;;16.60;99.90;;;;;;5028346;28;20107;-81
2021/05/25 08:22:56;;;;;;;9.38;6.85;;;16.80;99.90;;;;;;5042154;28;20060;-82
2021/05/25 08:25:25;;;;;;;11.00;5.70;;;17.20;99.90;;;;;;5027321;28;20025;-81
2021/05/25 08:27:52;;;;;;;8.07;6.05;;;17.60;99.90;;;;;;5027010;28;20025;-81
2021/05/25 08:30:24;;;;;;;12.63;5.88;;;17.50;99.90;;;;;;5026794;28;20072;-78
2021/05/25 08:32:51;;;;;;;9.55;6.45;;;17.40;99.90;;;;;;5041502;28;20025;-79
2021/05/25 08:35:18;;;;;;;9.68;6.28;;;17.20;99.90;;;;;;5046212;28;20529;-79
2021/05/25 08:37:55;;;;;;;9.98;6.38;;;17.10;99.90;;;;;;5046311;28;20320;-79
2021/05/25 08:40:21;;;;;;;8.73;6.22;;;17.00;99.90;;;;;;5046257;28;20021;-82
2021/05/25 08:42:48;;;;;;;9.00;6.38;;;16.90;99.90;;;;;;5034236;28;20029;-80
2021/05/25 08:45:15;;;;;;;8.07;5.35;;;16.90;99.90;;;;;;5025566;28;20029;-77
2021/05/25 08:47:41;;;;;;;14.63;5.43;;;17.00;99.90;;;;;;5025280;28;20466;-80
2021/05/25 08:50:11;;;;;;;19.15;6.00;;;17.50;99.90;;;;;;5026113;28;20167;-82
2021/05/25 08:52:37;;;;;;;10.07;5.03;;;17.70;99.90;;;;;;5026167;28;20095;-81
2021/05/25 08:55:05;;;;;;;8.57;4.88;;;17.70;99.90;;;;;;5046562;28;20063;-81
2021/05/25 08:57:31;;;;;;;10.07;5.10;;;17.60;99.90;;;;;;5031507;28;20029;-80
2021/05/25 08:59:57;;;;;;;7.43;5.20;;;18.10;99.90;;;;;;5026246;28;20029;-82
2021/05/25 09:02:22;;;;;;;8.68;5.88;;;18.80;99.90;;;;;;5024835;28;20033;-81
2021/05/25 09:05:07;;;;;;;10.27;4.60;;;18.80;99.90;;;;;;5026026;28;20045;-81
2021/05/25 09:07:42;;;;;;;8.30;5.40;;;18.70;99.90;;;;;;5026336;28;20029;-81
2021/05/25 09:10:14;;;;;;;10.93;4.85;;;18.90;99.90;;;;;;5026271;28;20082;-81
2021/05/25 09:12:45;;;;;;;9.00;5.15;;;19.00;99.90;;;;;;5025813;28;20021;-81
2021/05/25 09:15:13;;;;;;;8.05;4.82;;;19.10;99.90;;;;;;5025936;28;20033;-81
2021/05/25 09:17:40;;;;;;;8.38;4.00;;;18.60;99.90;;;;;;5025399;28;20069;-81
2021/05/25 09:20:08;;;;;;;10.43;3.75;;;19.00;99.90;;;;;;5027552;28;20025;-81
2021/05/25 09:22:43;;;;;;;8.90;4.32;;;19.20;99.90;;;;;;5045369;28;20064;-81
2021/05/25 09:25:22;;;;;;;13.57;4.32;;;19.30;99.90;;;;;;5045433;28;20072;-81
2021/05/25 09:28:07;;;;;;;13.93;3.85;;;19.40;99.90;;;;;;5045751;28;20470;-81
2021/05/25 09:30:32;;;;;;;7.20;4.20;;;19.40;99.90;;;;;;5043659;28;20097;-81
2021/05/25 09:33:03;;;;;;;5.70;3.80;;;19.50;99.90;;;;;;5030299;28;20123;-81
2021/05/25 09:35:34;;;;;;;4.03;1.75;;;19.20;99.90;;;;;;5025967;28;20372;-81
2021/05/25 09:38:07;;;;;;;6.50;4.20;;;19.20;99.50;;;;;;5024033;28;20029;-80
2021/05/25 09:40:34;;;;;;;9.70;3.15;;;19.50;99.90;;;;;;5025157;28;20025;-81
2021/05/25 09:43:17;;;;;;;5.15;1.65;;;19.60;99.90;;;;;;5029686;28;20040;-80
2021/05/25 09:45:58;;;;;;;3.08;1.33;;;19.70;99.40;;;;;;5045441;28;20031;-80
2021/05/25 09:48:26;;;;;;;3.35;1.63;;;20.00;98.40;;;;;;5037671;28;20029;-80
2021/05/25 09:50:55;;;;;;;7.93;1.77;;;20.10;98.80;;;;;;5044439;28;20020;-80
2021/05/25 09:53:28;;;;;;;3.10;1.40;;;20.20;99.20;;;;;;5039376;28;20803;-80
2021/05/25 09:55:58;;;;;;;2.28;1.30;;;20.20;95.50;;;;;;5044860;28;20028;-80
2021/05/25 09:58:45;;;;;;;3.03;1.45;;;20.50;97.50;;;;;;5044106;28;20025;-80
2021/05/25 10:01:11;;;;;;;3.03;1.23;;;20.40;96.80;;;;;;5044087;28;20090;-80
2021/05/25 10:03:48;;;;;;;2.55;1.45;;;20.40;96.50;;;;;;5041406;28;20033;-81
2021/05/25 10:06:14;;;;;;;10.00;2.88;;;20.50;97.80;;;;;;5028803;28;20026;-80
2021/05/25 10:08:45;;;;;;;3.47;2.20;;;20.70;98.00;;;;;;5028476;28;20105;-80
2021/05/25 10:11:16;;;;;;;4.13;1.50;;;20.50;99.40;;;;;;5027983;28;20483;-80
2021/05/25 10:13:41;;;;;;;2.95;1.30;;;20.20;97.10;;;;;;5028411;28;20036;-80
2021/05/25 10:16:10;;;;;;;4.47;1.92;;;20.50;97.00;;;;;;5028295;28;20375;-80
2021/05/25 10:21:13;;;;;;;3.78;2.28;;;20.20;99.30;;;;;;5047837;28;20196;-81
2021/05/25 10:23:44;;;;;;;3.42;1.58;;;20.40;99.10;;;;;;5045641;28;20116;-80
2021/05/25 10:26:16;;;;;;;7.72;1.45;;;20.60;97.20;;;;;;5046825;28;20450;-80
2021/05/25 10:28:46;;;;;;;2.65;1.05;;;20.70;95.90;;;;;;5045345;28;20067;-82
2021/05/25 10:31:35;;;;;;;2.35;1.35;;;20.70;95.40;;;;;;5032951;28;20502;-82
2021/05/25 10:34:21;;;;;;;3.35;1.85;;;20.90;96.30;;;;;;5046344;28;20040;-82
2021/05/25 10:37:02;;;;;;;3.33;1.55;;;21.10;97.40;;;;;;5046808;28;20033;-81
2021/05/25 10:39:37;;;;;;;3.55;2.00;;;21.20;98.90;;;;;;5046712;28;20451;-82
2021/05/25 10:42:18;;;;;;;2.60;1.50;;;21.00;98.00;;;;;;5047171;28;20060;-81
2021/05/25 10:45:04;;;;;;;5.10;1.33;;;21.00;97.80;;;;;;5048091;28;20029;-82
2021/05/25 10:50:15;;;;;;;3.13;1.40;;;21.20;96.20;;;;;;5036878;28;20025;-82
2021/05/25 10:53:05;;;;;;;5.63;1.58;;;21.30;95.50;;;;;;5027823;28;20061;-83
2021/05/25 10:55:39;;;;;;;3.10;1.40;;;21.10;96.50;;;;;;5026627;28;20892;-82
2021/05/25 10:58:17;;;;;;;3.00;1.45;;;20.80;95.90;;;;;;5026735;28;20037;-82
2021/05/25 11:00:43;;;;;;;2.13;1.10;;;20.20;95.90;;;;;;5026699;28;20084;-83
2021/05/25 11:03:11;;;;;;;2.15;1.00;;;20.40;95.40;;;;;;5026696;28;20776;-83
2021/05/25 11:05:41;;;;;;;3.03;0.98;;;20.80;93.60;;;;;;5026941;28;20021;-82
2021/05/25 11:08:14;;;;;;;2.60;1.40;;;21.10;94.50;;;;;;5027050;28;20030;-81
2021/05/25 11:10:43;;;;;;;4.60;1.20;;;20.40;95.10;;;;;;5033150;28;20017;-82
2021/05/25 11:13:15;;;;;;;1.65;0.70;;;20.60;93.50;;;;;;5048632;28;20027;-81
2021/05/25 11:21:41;;;;;;;2.20;0.80;;;21.00;94.00;;;;;;5040675;28;20033;-81
2021/05/25 11:24:33;;;;;;;3.38;0.80;;;20.80;93.50;;;;;;5028227;28;20025;-80
2021/05/25 11:27:09;;;;;;;3.00;0.93;;;20.40;93.30;;;;;;5028495;28;20096;-81
2021/05/25 11:29:48;;;;;;;2.63;1.15;;;20.20;93.20;;;;;;5028582;28;20021;-81
2021/05/25 11:32:17;;;;;;;3.08;1.00;;;20.40;94.20;;;;;;5040510;28;20080;-81
2021/05/25 11:34:43;;;;;;;4.40;1.35;;;20.20;92.90;;;;;;5048593;28;20028;-81
2021/05/25 11:37:14;;;;;;;1.63;0.63;;;20.50;94.50;;;;;;5048574;28;20020;-81
2021/05/25 11:39:39;;;;;;;1.58;0.65;;;20.70;93.80;;;;;;5048345;28;20409;-82
2021/05/25 11:42:07;;;;;;;1.67;0.77;;;20.90;92.90;;;;;;5039747;28;20029;-81
2021/05/25 11:44:38;;;;;;;24.52;3.70;;;20.60;93.40;;;;;;5045253;28;20688;-81
2021/05/25 11:47:07;;;;;;;2.63;0.95;;;20.80;94.70;;;;;;5048315;28;20099;-81
2021/05/25 11:49:39;;;;;;;2.08;1.17;;;21.00;94.30;;;;;;5048391;28;20482;-81
2021/05/25 11:52:34;;;;;;;2.00;0.90;;;21.10;92.70;;;;;;5042943;28;20104;-82
2021/05/25 11:55:09;;;;;;;1.92;0.95;;;21.40;92.70;;;;;;5028170;28;20132;-81
2021/05/25 11:57:37;;;;;;;1.63;0.85;;;21.60;94.00;;;;;;5028314;28;20477;-82
2021/05/25 12:00:15;;;;;;;2.22;1.05;;;21.80;92.90;;;;;;5028393;28;20017;-81
2021/05/25 12:02:54;;;;;;;2.28;1.30;;;21.50;93.10;;;;;;5028246;28;20033;-82
2021/05/25 12:05:22;;;;;;;4.50;1.00;;;21.50;92.70;;;;;;5043236;28;20033;-81
2021/05/25 12:07:50;;;;;;;2.08;1.10;;;21.50;92.60;;;;;;5047622;28;20116;-81
2021/05/25 12:10:24;;;;;;;3.33;0.95;;;21.30;91.50;;;;;;5043717;28;20029;-82
2021/05/25 12:12:51;;;;;;;1.83;0.95;;;21.50;91.50;;;;;;5027763;28;20056;-81
2021/05/25 12:15:25;;;;;;;1.60;0.93;;;22.10;92.60;;;;;;5027730;28;20451;-82
2021/05/25 12:17:54;;;;;;;4.03;1.15;;;22.10;90.70;;;;;;5027565;28;20054;-82
2021/05/25 12:20:22;;;;;;;2.13;0.98;;;22.60;92.00;;;;;;5028583;28;20030;-82
2021/05/25 12:22:53;;;;;;;6.07;1.70;;;22.40;91.90;;;;;;5037219;28;20404;-82
2021/05/25 12:25:23;;;;;;;2.85;0.90;;;22.00;93.70;;;;;;5027555;28;20029;-81
2021/05/25 12:27:52;;;;;;;1.42;0.70;;;20.60;94.00;;;;;;5027395;28;20021;-81
2021/05/25 12:30:19;;;;;;;2.67;1.10;;;19.20;93.90;;;;;;5027868;28;20021;-82
2021/05/25 12:32:46;;;;;;;1.98;0.68;;;18.40;94.30;;;;;;5027596;28;20025;-81
2021/05/25 12:35:13;;;;;;;3.97;0.80;;;17.60;94.20;;;;;;5027195;28;20021;-84
2021/05/25 12:37:41;;;;;;;11.18;0.85;;;16.90;94.50;;;;;;5027373;28;20029;-84
2021/05/25 12:40:10;;;;;;;2.10;0.65;;;17.10;94.50;;;;;;5027442;28;20017;-84
2021/05/25 12:42:40;;;;;;;2.05;0.82;;;17.10;94.40;;;;;;5027553;28;20115;-84
2021/05/25 12:45:12;;;;;;;1.48;0.75;;;17.30;94.50;;;;;;5046013;28;20060;-85
2021/05/25 12:48:00;;;;;;;1.77;0.40;;;17.10;93.60;;;;;;5046404;28;20071;-84
2021/05/25 12:50:34;;;;;;;1.10;0.40;;;17.20;93.80;;;;;;5046912;28;20021;-83
2021/05/25 12:53:19;;;;;;;1.35;0.40;;;17.20;92.40;;;;;;5045094;28;20060;-84
2021/05/25 12:55:50;;;;;;;1.85;0.60;;;17.10;94.20;;;;;;5026605;28;20547;-83
2021/05/25 12:58:43;;;;;;;4.90;0.50;;;16.70;94.60;;;;;;5027211;28;20555;-82
2021/05/25 13:01:31;;;;;;;1.50;0.68;;;16.10;96.40;;;;;;5026480;28;20431;-83